sensor_id;sensor_type;location;lat;lon;timestamp;pressure;altitude;pressure_sealevel;temperature;humidity
73821;BME280;62150;43.582;1.456;2023-03-14T08:37:42;100042.56;;;13.06;100.00
73821;BME280;62150;43.582;1.456;2023-03-14T08:40:10;100033.25;;;13.03;100.00
73821;BME280;62150;43.582;1.456;2023-03-14T08:42:38;100035.72;;;13.39;100.00
73821;BME280;62150;43.582;1.456;2023-03-14T08:45:07;100033.81;;;13.59;100.00
73821;BME280;62150;43.582;1.456;2023-03-14T08:47:35;100039.06;;;13.24;100.00
73821;BME280;62150;43.582;1.456;2023-03-14T08:50:03;100040.34;;;13.33;100.00
73821;BME280;62150;43.582;1.456;2023-03-14T08:52:31;100029.44;;;13.28;100.00
73821;BME280;62150;43.582;1.456;2023-03-14T08:55:01;100045.59;;;13.31;100.00
73821;BME280;62150;43.582;1.456;2023-03-14T08:57:28;100045.75;;;13.11;100.00
73821;BME280;62150;43.582;1.456;2023-03-14T08:59:56;100052.81;;;13.07;100.00
73821;BME280;62150;43.582;1.456;2023-03-14T09:02:24;100059.50;;;13.12;100.00
73821;BME280;62150;43.582;1.456;2023-03-14T09:04:53;100049.78;;;12.99;100.00
73821;BME280;62150;43.582;1.456;2023-03-14T09:07:21;100049.88;;;12.81;100.00
73821;BME280;62150;43.582;1.456;2023-03-14T09:09:48;100045.31;;;13.20;100.00
73821;BME280;62150;43.582;1.456;2023-03-14T09:12:17;100045.00;;;13.26;100.00
73821;BME280;62150;43.582;1.456;2023-03-14T09:14:45;100049.41;;;12.90;100.00
73821;BME280;62150;43.582;1.456;2023-03-14T09:17:12;100043.81;;;12.82;100.00
73821;BME280;62150;43.582;1.456;2023-03-14T09:19:40;100110.84;;;12.82;100.00
73821;BME280;62150;43.582;1.456;2023-03-14T09:22:07;100131.94;;;11.39;100.00
73821;BME280;62150;43.582;1.456;2023-03-14T09:24:35;100140.09;;;10.87;100.00
73821;BME280;62150;43.582;1.456;2023-03-14T09:27:02;100136.69;;;9.97;100.00
73821;BME280;62150;43.582;1.456;2023-03-14T09:29:31;100134.84;;;10.01;100.00
73821;BME280;62150;43.582;1.456;2023-03-14T09:31:59;100144.63;;;10.38;100.00
73821;BME280;62150;43.582;1.456;2023-03-14T09:34:27;100126.72;;;10.12;100.00
73821;BME280;62150;43.582;1.456;2023-03-14T09:36:54;100140.72;;;10.04;100.00
73821;BME280;62150;43.582;1.456;2023-03-14T09:39:23;100152.63;;;9.82;100.00
73821;BME280;62150;43.582;1.456;2023-03-14T09:41:52;100146.88;;;9.75;100.00
73821;BME280;62150;43.582;1.456;2023-03-14T09:44:24;100149.88;;;10.35;100.00
73821;BME280;62150;43.582;1.456;2023-03-14T09:46:55;100151.78;;;10.73;100.00
73821;BME280;62150;43.582;1.456;2023-03-14T09:49:27;100154.94;;;10.80;100.00
73821;BME280;62150;43.582;1.456;2023-03-14T09:51:56;100152.94;;;11.08;100.00
73821;BME280;62150;43.582;1.456;2023-03-14T09:54:32;100143.34;;;11.73;100.00
73821;BME280;62150;43.582;1.456;2023-03-14T09:57:03;100141.72;;;11.70;100.00
73821;BME280;62150;43.582;1.456;2023-03-14T09:59:31;100144.19;;;12.13;100.00
73821;BME280;62150;43.582;1.456;2023-03-14T10:02:02;100140.38;;;11.82;100.00
73821;BME280;62150;43.582;1.456;2023-03-14T10:04:39;100144.31;;;11.50;100.00
73821;BME280;62150;43.582;1.456;2023-03-14T10:07:14;100147.41;;;11.58;100.00
73821;BME280;62150;43.582;1.456;2023-03-14T10:09:44;100155.06;;;11.60;100.00
73821;BME280;62150;43.582;1.456;2023-03-14T10:12:12;100145.16;;;11.51;100.00
73821;BME280;62150;43.582;1.456;2023-03-14T10:14:46;100140.91;;;11.70;100.00
73821;BME280;62150;43.582;1.456;2023-03-14T10:17:17;100141.50;;;11.95;100.00
73821;BME280;62150;43.582;1.456;2023-03-14T10:19:55;100153.28;;;12.01;100.00
73821;BME280;62150;43.582;1.456;2023-03-14T10:22:26;100157.19;;;12.10;100.00
73821;BME280;62150;43.582;1.456;2023-03-14T10:24:55;100154.91;;;12.58;100.00
73821;BME280;62150;43.582;1.456;2023-03-14T10:27:29;100160.13;;;12.93;100.00
73821;BME280;62150;43.582;1.456;2023-03-14T10:29:58;100164.94;;;13.00;100.00
73821;BME280;62150;43.582;1.456;2023-03-14T10:32:33;100168.97;;;12.70;100.00
73821;BME280;62150;43.582;1.456;2023-03-14T10:35:19;100160.94;;;13.29;100.00
73821;BME280;62150;43.582;1.456;2023-03-14T10:37:52;100177.47;;;12.53;100.00
73821;BME280;62150;43.582;1.456;2023-03-14T10:40:26;100165.06;;;12.97;100.00
73821;BME280;62150;43.582;1.456;2023-03-14T10:42:55;100164.38;;;12.77;100.00
73821;BME280;62150;43.582;1.456;2023-03-14T10:45:36;100168.50;;;13.67;100.00
73821;BME280;62150;43.582;1.456;2023-03-14T10:48:19;100159.03;;;13.50;100.00
73821;BME280;62150;43.582;1.456;2023-03-14T10:50:54;100153.19;;;13.12;100.00
73821;BME280;62150;43.582;1.456;2023-03-14T10:53:23;100138.94;;;13.22;100.00
73821;BME280;62150;43.582;1.456;2023-03-14T10:56:03;100125.19;;;13.72;100.00
73821;BME280;62150;43.582;1.456;2023-03-14T10:58:35;100130.56;;;13.85;100.00
73821;BME280;62150;43.582;1.456;2023-03-14T11:01:22;100142.59;;;13.68;100.00
73821;BME280;62150;43.582;1.456;2023-03-14T11:03:57;100179.22;;;12.71;100.00
73821;BME280;62150;43.582;1.456;2023-03-14T11:06:32;100232.31;;;11.16;100.00
73821;BME280;62150;43.582;1.456;2023-03-14T11:09:06;100198.28;;;10.67;100.00
73821;BME280;62150;43.582;1.456;2023-03-14T11:11:40;100190.19;;;10.77;100.00
73821;BME280;62150;43.582;1.456;2023-03-14T11:14:18;100178.66;;;10.87;100.00
73821;BME280;62150;43.582;1.456;2023-03-14T11:16:53;100183.91;;;11.05;100.00
73821;BME280;62150;43.582;1.456;2023-03-14T11:19:42;100195.81;;;11.49;100.00
73821;BME280;62150;43.582;1.456;2023-03-14T11:22:20;100189.41;;;11.79;100.00
73821;BME280;62150;43.582;1.456;2023-03-14T11:25:09;100181.47;;;12.04;100.00
73821;BME280;62150;43.582;1.456;2023-03-14T11:27:43;100190.81;;;11.86;100.00
73821;BME280;62150;43.582;1.456;2023-03-14T11:30:19;100181.66;;;12.56;100.00
73821;BME280;62150;43.582;1.456;2023-03-14T11:32:54;100180.28;;;12.11;100.00
73821;BME280;62150;43.582;1.456;2023-03-14T11:35:28;100195.59;;;11.34;100.00
73821;BME280;62150;43.582;1.456;2023-03-14T11:38:04;100195.31;;;11.20;100.00
73821;BME280;62150;43.582;1.456;2023-03-14T11:40:36;100213.59;;;11.13;100.00
73821;BME280;62150;43.582;1.456;2023-03-14T11:43:11;100208.75;;;11.27;100.00
73821;BME280;62150;43.582;1.456;2023-03-14T11:45:43;100199.09;;;10.90;100.00
73821;BME280;62150;43.582;1.456;2023-03-14T11:48:29;100197.50;;;11.29;100.00
73821;BME280;62150;43.582;1.456;2023-03-14T11:51:07;100206.00;;;11.31;100.00
73821;BME280;62150;43.582;1.456;2023-03-14T11:53:43;100194.56;;;11.79;100.00
73821;BME280;62150;43.582;1.456;2023-03-14T11:56:20;100188.81;;;11.72;100.00
73821;BME280;62150;43.582;1.456;2023-03-14T11:58:55;100186.63;;;11.63;100.00
73821;BME280;62150;43.582;1.456;2023-03-14T12:01:32;100183.53;;;11.96;100.00
73821;BME280;62150;43.582;1.456;2023-03-14T12:04:09;100185.03;;;11.81;100.00
73821;BME280;62150;43.582;1.456;2023-03-14T12:06:47;100182.84;;;11.52;100.00
73821;BME280;62150;43.582;1.456;2023-03-14T12:09:16;100167.13;;;11.98;100.00
73821;BME280;62150;43.582;1.456;2023-03-14T12:11:48;100165.97;;;11.85;100.00
73821;BME280;62150;43.582;1.456;2023-03-14T12:14:21;100156.47;;;11.67;100.00
73821;BME280;62150;43.582;1.456;2023-03-14T12:16:52;100158.78;;;12.31;100.00
73821;BME280;62150;43.582;1.456;2023-03-14T12:19:38;100152.63;;;12.15;100.00
73821;BME280;62150;43.582;1.456;2023-03-14T12:25:06;100161.69;;;12.42;100.00
73821;BME280;62150;43.582;1.456;2023-03-14T12:30:41;100159.06;;;12.06;100.00
73821;BME280;62150;43.582;1.456;2023-03-14T12:33:20;100152.66;;;12.33;100.00
73821;BME280;62150;43.582;1.456;2023-03-14T12:35:50;100156.75;;;12.19;100.00
73821;BME280;62150;43.582;1.456;2023-03-14T12:38:26;100143.06;;;12.54;100.00
73821;BME280;62150;43.582;1.456;2023-03-14T12:40:58;100137.78;;;12.57;100.00
73821;BME280;62150;43.582;1.456;2023-03-14T12:43:30;100121.16;;;13.33;100.00
73821;BME280;62150;43.582;1.456;2023-03-14T12:46:19;100122.94;;;13.66;100.00
73821;BME280;62150;43.582;1.456;2023-03-14T12:48:48;100124.00;;;14.26;100.00
73821;BME280;62150;43.582;1.456;2023-03-14T12:51:19;100121.78;;;13.71;100.00
73821;BME280;62150;43.582;1.456;2023-03-14T12:54:02;100124.06;;;13.45;100.00
73821;BME280;62150;43.582;1.456;2023-03-14T12:56:45;100120.19;;;13.19;100.00
73821;BME280;62150;43.582;1.456;2023-03-14T12:59:32;100115.53;;;12.91;100.00
73821;BME280;62150;43.582;1.456;2023-03-14T13:02:10;100118.66;;;12.80;100.00
73821;BME280;62150;43.582;1.456;2023-03-14T13:04:45;100114.16;;;12.84;100.00
73821;BME280;62150;43.582;1.456;2023-03-14T13:07:28;100106.75;;;12.78;100.00
73821;BME280;62150;43.582;1.456;2023-03-14T13:10:05;100109.19;;;12.98;100.00
73821;BME280;62150;43.582;1.456;2023-03-14T13:12:51;100084.75;;;14.20;100.00
73821;BME280;62150;43.582;1.456;2023-03-14T13:15:25;100088.44;;;14.47;100.00
73821;BME280;62150;43.582;1.456;2023-03-14T13:17:56;100076.72;;;14.24;100.00
73821;BME280;62150;43.582;1.456;2023-03-14T13:20:30;100074.59;;;14.78;100.00
73821;BME280;62150;43.582;1.456;2023-03-14T13:22:59;100066.34;;;14.71;100.00
73821;BME280;62150;43.582;1.456;2023-03-14T13:25:33;100062.63;;;14.61;100.00
73821;BME280;62150;43.582;1.456;2023-03-14T13:28:01;100051.78;;;15.71;100.00
73821;BME280;62150;43.582;1.456;2023-03-14T13:30:38;100063.22;;;14.35;100.00
73821;BME280;62150;43.582;1.456;2023-03-14T13:33:06;100060.38;;;14.39;100.00
73821;BME280;62150;43.582;1.456;2023-03-14T13:35:41;100056.69;;;14.14;100.00
73821;BME280;62150;43.582;1.456;2023-03-14T13:38:16;100054.84;;;14.16;100.00
73821;BME280;62150;43.582;1.456;2023-03-14T13:40:46;100059.66;;;14.22;100.00
73821;BME280;62150;43.582;1.456;2023-03-14T13:43:18;100078.00;;;13.53;100.00
73821;BME280;62150;43.582;1.456;2023-03-14T13:45:50;100091.88;;;13.34;100.00
73821;BME280;62150;43.582;1.456;2023-03-14T13:48:19;100120.84;;;13.05;100.00
73821;BME280;62150;43.582;1.456;2023-03-14T13:50:56;100146.19;;;11.47;100.00
73821;BME280;62150;43.582;1.456;2023-03-14T13:53:26;100167.97;;;10.75;100.00
73821;BME280;62150;43.582;1.456;2023-03-14T13:55:55;100159.22;;;11.01;100.00
73821;BME280;62150;43.582;1.456;2023-03-14T13:58:27;100158.94;;;11.29;100.00
73821;BME280;62150;43.582;1.456;2023-03-14T14:01:06;100160.00;;;11.64;100.00
73821;BME280;62150;43.582;1.456;2023-03-14T14:03:39;100160.78;;;11.05;100.00
73821;BME280;62150;43.582;1.456;2023-03-14T14:06:10;100154.63;;;11.30;100.00
73821;BME280;62150;43.582;1.456;2023-03-14T14:08:44;100159.56;;;11.55;100.00
73821;BME280;62150;43.582;1.456;2023-03-14T14:11:21;100150.97;;;11.35;100.00
73821;BME280;62150;43.582;1.456;2023-03-14T14:13:49;100123.81;;;12.44;100.00
73821;BME280;62150;43.582;1.456;2023-03-14T14:16:20;100144.84;;;13.07;100.00
73821;BME280;62150;43.582;1.456;2023-03-14T14:18:52;100136.22;;;12.89;100.00
73821;BME280;62150;43.582;1.456;2023-03-14T14:21:20;100128.97;;;13.82;100.00
73821;BME280;62150;43.582;1.456;2023-03-14T14:23:49;100134.38;;;13.27;100.00
73821;BME280;62150;43.582;1.456;2023-03-14T14:26:19;100133.91;;;14.02;100.00
73821;BME280;62150;43.582;1.456;2023-03-14T14:28:47;100134.72;;;12.85;100.00
73821;BME280;62150;43.582;1.456;2023-03-14T14:31:25;100139.69;;;13.07;100.00
73821;BME280;62150;43.582;1.456;2023-03-14T14:33:57;100143.16;;;12.53;100.00
73821;BME280;62150;43.582;1.456;2023-03-14T14:36:27;100159.56;;;12.69;100.00
73821;BME280;62150;43.582;1.456;2023-03-14T14:38:59;100156.06;;;11.96;100.00
73821;BME280;62150;43.582;1.456;2023-03-14T14:41:30;100139.66;;;12.54;100.00
73821;BME280;62150;43.582;1.456;2023-03-14T14:43:58;100152.47;;;12.91;100.00
73821;BME280;62150;43.582;1.456;2023-03-14T14:46:28;100131.63;;;13.13;100.00
73821;BME280;62150;43.582;1.456;2023-03-14T14:48:58;100127.69;;;13.40;100.00
73821;BME280;62150;43.582;1.456;2023-03-14T14:51:33;100138.16;;;13.37;100.00
73821;BME280;62150;43.582;1.456;2023-03-14T14:54:11;100161.59;;;12.62;100.00
73821;BME280;62150;43.582;1.456;2023-03-14T14:56:44;100193.56;;;12.21;100.00
73821;BME280;62150;43.582;1.456;2023-03-14T14:59:22;100224.16;;;11.89;100.00
73821;BME280;62150;43.582;1.456;2023-03-14T15:01:50;100205.69;;;11.39;100.00
73821;BME280;62150;43.582;1.456;2023-03-14T15:04:22;100187.09;;;11.32;100.00
73821;BME280;62150;43.582;1.456;2023-03-14T15:06:50;100183.94;;;11.66;100.00
73821;BME280;62150;43.582;1.456;2023-03-14T15:09:18;100162.50;;;11.86;100.00
73821;BME280;62150;43.582;1.456;2023-03-14T15:11:49;100167.03;;;11.61;100.00
73821;BME280;62150;43.582;1.456;2023-03-14T15:14:16;100159.53;;;11.77;100.00
73821;BME280;62150;43.582;1.456;2023-03-14T15:16:44;100163.72;;;12.35;100.00
73821;BME280;62150;43.582;1.456;2023-03-14T15:19:16;100162.59;;;13.13;100.00
73821;BME280;62150;43.582;1.456;2023-03-14T15:21:44;100164.97;;;13.85;100.00
73821;BME280;62150;43.582;1.456;2023-03-14T15:24:11;100169.81;;;12.88;100.00
73821;BME280;62150;43.582;1.456;2023-03-14T15:26:39;100169.03;;;12.68;100.00
73821;BME280;62150;43.582;1.456;2023-03-14T15:29:09;100159.31;;;12.56;100.00
73821;BME280;62150;43.582;1.456;2023-03-14T15:31:38;100153.44;;;12.89;100.00
73821;BME280;62150;43.582;1.456;2023-03-14T15:34:06;100156.00;;;12.35;100.00
73821;BME280;62150;43.582;1.456;2023-03-14T15:36:34;100171.56;;;12.70;100.00
73821;BME280;62150;43.582;1.456;2023-03-14T15:39:04;100170.41;;;12.39;100.00
73821;BME280;62150;43.582;1.456;2023-03-14T15:41:32;100174.13;;;12.51;100.00
73821;BME280;62150;43.582;1.456;2023-03-14T15:43:59;100174.34;;;12.65;100.00
73821;BME280;62150;43.582;1.456;2023-03-14T15:46:28;100176.38;;;12.59;100.00
73821;BME280;62150;43.582;1.456;2023-03-14T15:48:56;100181.38;;;12.62;100.00
73821;BME280;62150;43.582;1.456;2023-03-14T15:51:23;100173.44;;;13.54;100.00
73821;BME280;62150;43.582;1.456;2023-03-14T15:53:51;100172.91;;;13.13;100.00
73821;BME280;62150;43.582;1.456;2023-03-14T15:56:19;100174.03;;;13.77;100.00
73821;BME280;62150;43.582;1.456;2023-03-14T15:58:50;100165.38;;;13.93;100.00
73821;BME280;62150;43.582;1.456;2023-03-14T16:01:17;100164.59;;;13.43;100.00
73821;BME280;62150;43.582;1.456;2023-03-14T16:03:47;100150.31;;;13.86;100.00
73821;BME280;62150;43.582;1.456;2023-03-14T16:06:15;100146.94;;;14.64;100.00
73821;BME280;62150;43.582;1.456;2023-03-14T16:08:43;100157.25;;;13.68;100.00
73821;BME280;62150;43.582;1.456;2023-03-14T16:11:11;100172.41;;;12.88;100.00
73821;BME280;62150;43.582;1.456;2023-03-14T16:13:40;100169.69;;;12.91;100.00
73821;BME280;62150;43.582;1.456;2023-03-14T16:16:09;100167.41;;;12.85;100.00
73821;BME280;62150;43.582;1.456;2023-03-14T16:18:38;100177.50;;;12.89;100.00
73821;BME280;62150;43.582;1.456;2023-03-14T16:21:10;100182.09;;;12.83;100.00
73821;BME280;62150;43.582;1.456;2023-03-14T16:23:38;100173.44;;;13.02;100.00
73821;BME280;62150;43.582;1.456;2023-03-14T16:26:08;100181.81;;;12.89;100.00
73821;BME280;62150;43.582;1.456;2023-03-14T16:28:35;100177.63;;;13.39;100.00
73821;BME280;62150;43.582;1.456;2023-03-14T16:31:04;100179.00;;;13.29;100.00
73821;BME280;62150;43.582;1.456;2023-03-14T16:33:33;100185.19;;;13.60;100.00
73821;BME280;62150;43.582;1.456;2023-03-14T16:36:03;100181.41;;;13.67;100.00
73821;BME280;62150;43.582;1.456;2023-03-14T16:38:35;100170.31;;;14.92;100.00
73821;BME280;62150;43.582;1.456;2023-03-14T16:41:05;100166.28;;;14.72;100.00
73821;BME280;62150;43.582;1.456;2023-03-14T16:43:33;100174.97;;;14.56;100.00
73821;BME280;62150;43.582;1.456;2023-03-14T16:46:03;100178.19;;;14.28;100.00
73821;BME280;62150;43.582;1.456;2023-03-14T16:48:31;100181.53;;;14.30;100.00
73821;BME280;62150;43.582;1.456;2023-03-14T16:50:59;100191.63;;;14.34;100.00
73821;BME280;62150;43.582;1.456;2023-03-14T16:53:27;100194.13;;;14.20;100.00
73821;BME280;62150;43.582;1.456;2023-03-14T16:55:58;100196.31;;;13.95;100.00
73821;BME280;62150;43.582;1.456;2023-03-14T16:58:26;100201.31;;;13.48;100.00
73821;BME280;62150;43.582;1.456;2023-03-14T17:00:55;100206.75;;;13.76;100.00
73821;BME280;62150;43.582;1.456;2023-03-14T17:03:22;100204.28;;;13.90;100.00
73821;BME280;62150;43.582;1.456;2023-03-14T17:05:52;100197.56;;;13.70;100.00
73821;BME280;62150;43.582;1.456;2023-03-14T17:08:20;100196.03;;;13.84;100.00
73821;BME280;62150;43.582;1.456;2023-03-14T17:10:48;100208.59;;;13.57;100.00
73821;BME280;62150;43.582;1.456;2023-03-14T17:13:17;100209.75;;;13.51;100.00
73821;BME280;62150;43.582;1.456;2023-03-14T17:15:52;100210.78;;;13.64;100.00
73821;BME280;62150;43.582;1.456;2023-03-14T17:18:21;100212.22;;;13.53;100.00
73821;BME280;62150;43.582;1.456;2023-03-14T17:20:49;100222.69;;;13.84;100.00
73821;BME280;62150;43.582;1.456;2023-03-14T17:23:17;100229.88;;;13.45;100.00
73821;BME280;62150;43.582;1.456;2023-03-14T17:25:46;100221.94;;;13.30;100.00
73821;BME280;62150;43.582;1.456;2023-03-14T17:28:17;100228.16;;;13.26;100.00
73821;BME280;62150;43.582;1.456;2023-03-14T17:30:45;100232.25;;;13.13;100.00
73821;BME280;62150;43.582;1.456;2023-03-14T17:33:12;100228.91;;;13.11;100.00
73821;BME280;62150;43.582;1.456;2023-03-14T17:35:42;100237.34;;;12.96;100.00
73821;BME280;62150;43.582;1.456;2023-03-14T17:38:09;100244.38;;;12.92;100.00
73821;BME280;62150;43.582;1.456;2023-03-14T17:40:37;100243.06;;;13.02;100.00
73821;BME280;62150;43.582;1.456;2023-03-14T17:43:04;100260.91;;;13.07;100.00
73821;BME280;62150;43.582;1.456;2023-03-14T17:45:33;100248.16;;;12.85;100.00
73821;BME280;62150;43.582;1.456;2023-03-14T17:48:01;100248.28;;;12.82;100.00
73821;BME280;62150;43.582;1.456;2023-03-14T17:50:29;100261.34;;;12.60;100.00
73821;BME280;62150;43.582;1.456;2023-03-14T17:52:56;100255.56;;;12.55;100.00
73821;BME280;62150;43.582;1.456;2023-03-14T17:55:24;100265.53;;;12.63;100.00
73821;BME280;62150;43.582;1.456;2023-03-14T17:57:52;100277.56;;;12.62;100.00
73821;BME280;62150;43.582;1.456;2023-03-14T18:00:20;100272.84;;;12.72;100.00
73821;BME280;62150;43.582;1.456;2023-03-14T18:02:50;100281.34;;;12.55;100.00
73821;BME280;62150;43.582;1.456;2023-03-14T18:05:18;100286.22;;;12.61;100.00
73821;BME280;62150;43.582;1.456;2023-03-14T18:07:45;100297.44;;;12.60;100.00
73821;BME280;62150;43.582;1.456;2023-03-14T18:10:13;100305.94;;;12.44;100.00
73821;BME280;62150;43.582;1.456;2023-03-14T18:12:42;100303.84;;;12.70;100.00
73821;BME280;62150;43.582;1.456;2023-03-14T18:15:10;100323.38;;;12.37;100.00
73821;BME280;62150;43.582;1.456;2023-03-14T18:17:39;100320.81;;;12.37;100.00
73821;BME280;62150;43.582;1.456;2023-03-14T18:20:10;100322.91;;;12.48;100.00
73821;BME280;62150;43.582;1.456;2023-03-14T18:22:38;100329.38;;;12.37;100.00
73821;BME280;62150;43.582;1.456;2023-03-14T18:25:06;100326.66;;;12.40;100.00
73821;BME280;62150;43.582;1.456;2023-03-14T18:27:34;100330.09;;;12.41;100.00
73821;BME280;62150;43.582;1.456;2023-03-14T18:30:02;100333.44;;;12.43;100.00
73821;BME280;62150;43.582;1.456;2023-03-14T18:32:30;100331.44;;;12.29;100.00
73821;BME280;62150;43.582;1.456;2023-03-14T18:34:57;100334.56;;;12.56;100.00
73821;BME280;62150;43.582;1.456;2023-03-14T18:37:26;100341.88;;;12.26;100.00
73821;BME280;62150;43.582;1.456;2023-03-14T18:39:54;100348.31;;;12.36;100.00
73821;BME280;62150;43.582;1.456;2023-03-14T18:42:21;100355.28;;;12.34;100.00
73821;BME280;62150;43.582;1.456;2023-03-14T18:44:48;100367.63;;;12.26;100.00
73821;BME280;62150;43.582;1.456;2023-03-14T18:47:16;100366.94;;;12.02;100.00
73821;BME280;62150;43.582;1.456;2023-03-14T18:49:44;100373.88;;;12.21;100.00
73821;BME280;62150;43.582;1.456;2023-03-14T18:52:11;100373.44;;;12.31;100.00
73821;BME280;62150;43.582;1.456;2023-03-14T18:54:41;100382.13;;;12.08;100.00
73821;BME280;62150;43.582;1.456;2023-03-14T18:57:08;100372.84;;;12.04;100.00
73821;BME280;62150;43.582;1.456;2023-03-14T18:59:36;100387.13;;;11.91;100.00
73821;BME280;62150;43.582;1.456;2023-03-14T19:02:04;100395.72;;;12.12;100.00
73821;BME280;62150;43.582;1.456;2023-03-14T19:04:31;100396.34;;;12.17;100.00
73821;BME280;62150;43.582;1.456;2023-03-14T19:06:59;100409.47;;;11.91;100.00
73821;BME280;62150;43.582;1.456;2023-03-14T19:09:27;100405.38;;;12.07;100.00
73821;BME280;62150;43.582;1.456;2023-03-14T19:11:56;100412.63;;;11.97;100.00
73821;BME280;62150;43.582;1.456;2023-03-14T19:14:23;100417.00;;;11.95;100.00
73821;BME280;62150;43.582;1.456;2023-03-14T19:17:04;100412.81;;;12.13;100.00
73821;BME280;62150;43.582;1.456;2023-03-14T19:19:32;100417.41;;;12.06;100.00
73821;BME280;62150;43.582;1.456;2023-03-14T19:21:59;100423.75;;;11.76;100.00
73821;BME280;62150;43.582;1.456;2023-03-14T19:24:27;100426.50;;;11.93;100.00
73821;BME280;62150;43.582;1.456;2023-03-14T19:26:56;100421.72;;;11.84;100.00
73821;BME280;62150;43.582;1.456;2023-03-14T19:29:23;100427.94;;;11.79;100.00
73821;BME280;62150;43.582;1.456;2023-03-14T19:31:51;100432.09;;;11.83;100.00
73821;BME280;62150;43.582;1.456;2023-03-14T19:34:19;100432.63;;;12.13;100.00
73821;BME280;62150;43.582;1.456;2023-03-14T19:36:48;100435.91;;;11.94;100.00
73821;BME280;62150;43.582;1.456;2023-03-14T19:39:15;100438.88;;;11.62;100.00
73821;BME280;62150;43.582;1.456;2023-03-14T19:41:43;100438.34;;;11.77;100.00
73821;BME280;62150;43.582;1.456;2023-03-14T19:44:12;100444.09;;;11.60;100.00
73821;BME280;62150;43.582;1.456;2023-03-14T19:46:39;100443.75;;;11.69;100.00
73821;BME280;62150;43.582;1.456;2023-03-14T19:49:07;100445.78;;;11.83;100.00
73821;BME280;62150;43.582;1.456;2023-03-14T19:51:34;100437.28;;;11.81;100.00
73821;BME280;62150;43.582;1.456;2023-03-14T19:54:02;100442.53;;;11.56;100.00
73821;BME280;62150;43.582;1.456;2023-03-14T19:56:30;100453.59;;;11.58;100.00
73821;BME280;62150;43.582;1.456;2023-03-14T19:58:58;100457.19;;;11.54;100.00
73821;BME280;62150;43.582;1.456;2023-03-14T20:01:29;100456.44;;;11.74;100.00
73821;BME280;62150;43.582;1.456;2023-03-14T20:03:57;100471.38;;;11.64;100.00
73821;BME280;62150;43.582;1.456;2023-03-14T20:06:24;100455.16;;;11.62;100.00
73821;BME280;62150;43.582;1.456;2023-03-14T20:08:56;100467.59;;;11.51;100.00
73821;BME280;62150;43.582;1.456;2023-03-14T20:11:23;100464.56;;;11.63;100.00
73821;BME280;62150;43.582;1.456;2023-03-14T20:13:51;100463.72;;;11.63;100.00
73821;BME280;62150;43.582;1.456;2023-03-14T20:16:19;100477.72;;;11.56;100.00
73821;BME280;62150;43.582;1.456;2023-03-14T20:18:47;100472.00;;;11.48;100.00
73821;BME280;62150;43.582;1.456;2023-03-14T20:21:15;100472.78;;;11.50;100.00
73821;BME280;62150;43.582;1.456;2023-03-14T20:23:42;100477.19;;;11.69;100.00
73821;BME280;62150;43.582;1.456;2023-03-14T20:26:10;100465.06;;;11.73;100.00
73821;BME280;62150;43.582;1.456;2023-03-14T20:28:38;100473.22;;;11.61;100.00
73821;BME280;62150;43.582;1.456;2023-03-14T20:31:07;100461.22;;;11.61;100.00
73821;BME280;62150;43.582;1.456;2023-03-14T20:33:35;100481.63;;;11.66;100.00
73821;BME280;62150;43.582;1.456;2023-03-14T20:36:04;100485.59;;;11.51;100.00
73821;BME280;62150;43.582;1.456;2023-03-14T20:38:32;100490.56;;;11.56;100.00
73821;BME280;62150;43.582;1.456;2023-03-14T20:41:02;100498.88;;;11.40;100.00
73821;BME280;62150;43.582;1.456;2023-03-14T20:43:30;100499.94;;;11.35;100.00
73821;BME280;62150;43.582;1.456;2023-03-14T20:45:59;100493.84;;;11.37;100.00
73821;BME280;62150;43.582;1.456;2023-03-14T20:48:29;100501.66;;;11.58;100.00
73821;BME280;62150;43.582;1.456;2023-03-14T20:50:57;100487.69;;;11.18;100.00
73821;BME280;62150;43.582;1.456;2023-03-14T20:53:26;100500.94;;;11.31;100.00
73821;BME280;62150;43.582;1.456;2023-03-14T20:55:55;100503.88;;;11.43;100.00
73821;BME280;62150;43.582;1.456;2023-03-14T20:58:23;100498.47;;;11.28;100.00
73821;BME280;62150;43.582;1.456;2023-03-14T21:00:51;100506.81;;;11.34;100.00
73821;BME280;62150;43.582;1.456;2023-03-14T21:03:21;100506.59;;;11.40;100.00
73821;BME280;62150;43.582;1.456;2023-03-14T21:05:49;100508.59;;;11.56;100.00
73821;BME280;62150;43.582;1.456;2023-03-14T21:08:18;100513.38;;;11.43;100.00
73821;BME280;62150;43.582;1.456;2023-03-14T21:10:49;100511.19;;;11.32;100.00
73821;BME280;62150;43.582;1.456;2023-03-14T21:13:17;100518.75;;;11.12;100.00
73821;BME280;62150;43.582;1.456;2023-03-14T21:15:45;100519.47;;;11.16;100.00
73821;BME280;62150;43.582;1.456;2023-03-14T21:18:13;100514.75;;;11.28;100.00
73821;BME280;62150;43.582;1.456;2023-03-14T21:20:41;100520.66;;;11.07;100.00
73821;BME280;62150;43.582;1.456;2023-03-14T21:23:09;100522.00;;;11.17;100.00
73821;BME280;62150;43.582;1.456;2023-03-14T21:25:38;100517.47;;;11.24;100.00
73821;BME280;62150;43.582;1.456;2023-03-14T21:28:09;100524.81;;;11.58;100.00
73821;BME280;62150;43.582;1.456;2023-03-14T21:30:37;100523.13;;;11.57;100.00
73821;BME280;62150;43.582;1.456;2023-03-14T21:33:05;100517.66;;;11.19;100.00
73821;BME280;62150;43.582;1.456;2023-03-14T21:35:32;100519.22;;;11.23;100.00
73821;BME280;62150;43.582;1.456;2023-03-14T21:38:00;100513.81;;;11.31;100.00
73821;BME280;62150;43.582;1.456;2023-03-14T21:40:27;100511.22;;;11.31;100.00